Time;durP1;ratioP1;P1;durP2;ratioP2;P2;SDS_P1;SDS_P2;PMS_P1;PMS_P2;Temp;Humidity;BMP_temperature;BMP_pressure;BME280_temperature;BME280_humidity;BME280_pressure;Samples;Min_cycle;Max_cycle;Signal;HPM_P1;HPM_P2
2022/07/30 00:01:27;;;;;;;8.10;7.27;;;17.40;99.90;;;;;;5053764;28;20560;-67
2022/07/30 00:03:53;;;;;;;15.20;7.93;;;17.40;99.90;;;;;;5065629;28;20183;-67
2022/07/30 00:06:18;;;;;;;11.17;8.67;;;17.40;99.90;;;;;;5068148;28;20190;-68
2022/07/30 00:08:44;;;;;;;15.77;8.27;;;17.30;99.90;;;;;;5059712;28;20612;-68
2022/07/30 00:11:10;;;;;;;11.57;7.77;;;17.30;99.90;;;;;;5058366;28;20201;-67
2022/07/30 00:13:37;;;;;;;8.40;7.70;;;17.30;99.90;;;;;;5068759;28;20186;-68
2022/07/30 00:16:02;;;;;;;9.63;8.20;;;17.30;99.90;;;;;;5050469;28;20725;-68
2022/07/30 00:18:28;;;;;;;10.60;8.23;;;17.30;99.90;;;;;;5067603;28;20186;-68
2022/07/30 00:20:53;;;;;;;10.07;8.90;;;17.30;99.90;;;;;;5059991;28;20218;-67
2022/07/30 00:23:19;;;;;;;9.43;8.47;;;17.30;99.90;;;;;;5057775;28;20247;-66
2022/07/30 00:25:44;;;;;;;9.17;7.70;;;17.20;99.90;;;;;;5062030;28;20198;-68
2022/07/30 00:28:10;;;;;;;9.00;8.20;;;17.20;99.90;;;;;;5071179;28;20635;-68
2022/07/30 00:30:37;;;;;;;9.70;7.80;;;17.20;99.90;;;;;;5069588;28;20178;-67
2022/07/30 00:33:03;;;;;;;9.60;8.57;;;17.10;99.90;;;;;;5062632;28;20300;-67
2022/07/30 00:35:28;;;;;;;9.60;8.10;;;17.10;99.90;;;;;;5064423;28;20282;-68
2022/07/30 00:37:54;;;;;;;8.13;7.43;;;17.10;99.90;;;;;;5050895;28;20183;-68
2022/07/30 00:40:20;;;;;;;12.43;8.13;;;17.10;99.90;;;;;;5069623;28;20235;-68
2022/07/30 00:42:46;;;;;;;9.57;8.70;;;17.10;99.90;;;;;;5053874;28;20209;-68
2022/07/30 00:45:14;;;;;;;9.87;7.40;;;17.10;99.90;;;;;;5060322;28;20586;-67
2022/07/30 00:47:40;;;;;;;10.80;8.60;;;17.00;99.90;;;;;;5063575;28;20521;-68
2022/07/30 00:50:08;;;;;;;9.63;8.60;;;17.00;99.90;;;;;;5052137;28;20253;-68
2022/07/30 00:52:35;;;;;;;9.60;8.77;;;17.00;99.90;;;;;;5066132;28;20550;-67
2022/07/30 00:55:00;;;;;;;9.63;8.80;;;16.90;99.90;;;;;;5069736;28;20213;-68
2022/07/30 00:57:27;;;;;;;10.63;8.50;;;16.90;99.90;;;;;;5062587;28;20179;-68
2022/07/30 00:59:53;;;;;;;11.13;8.67;;;16.80;99.90;;;;;;5060168;28;20259;-67
2022/07/30 01:02:19;;;;;;;10.37;9.10;;;16.80;99.90;;;;;;5073466;28;20379;-68
2022/07/30 01:04:45;;;;;;;9.37;8.67;;;16.80;99.90;;;;;;5053737;28;20204;-68
2022/07/30 01:07:10;;;;;;;12.07;9.13;;;16.80;99.90;;;;;;5071075;28;20547;-68
2022/07/30 01:09:37;;;;;;;11.43;10.20;;;16.70;99.90;;;;;;5063184;28;20187;-68
2022/07/30 01:12:05;;;;;;;9.53;8.53;;;16.70;99.90;;;;;;5058640;28;20780;-67
2022/07/30 01:14:33;;;;;;;12.50;8.67;;;16.70;99.90;;;;;;5071072;28;20198;-68
2022/07/30 01:16:58;;;;;;;11.47;10.00;;;16.60;99.90;;;;;;5055186;28;20179;-67
2022/07/30 01:22:35;;;;;;;13.13;9.33;;;16.60;99.90;;;;;;5060894;28;20213;-67
2022/07/30 01:25:20;;;;;;;13.47;9.27;;;16.50;99.90;;;;;;5033929;28;20759;-67
2022/07/30 01:28:08;;;;;;;13.27;10.37;;;16.50;99.90;;;;;;5062998;28;20640;-67
2022/07/30 01:30:38;;;;;;;12.70;10.00;;;16.40;99.90;;;;;;5062336;28;20186;-67
2022/07/30 01:33:06;;;;;;;11.47;10.37;;;16.40;99.90;;;;;;5069252;28;20211;-67
2022/07/30 01:35:33;;;;;;;11.63;9.97;;;16.40;99.90;;;;;;5054413;28;20252;-67
2022/07/30 01:38:00;;;;;;;11.23;10.17;;;16.30;99.90;;;;;;5074173;28;20186;-67
2022/07/30 01:40:27;;;;;;;11.27;10.13;;;16.30;99.90;;;;;;5057104;28;20175;-66
2022/07/30 01:42:56;;;;;;;15.37;10.90;;;16.20;99.90;;;;;;5065286;28;20244;-68
2022/07/30 01:45:24;;;;;;;15.03;9.50;;;16.20;99.90;;;;;;5065724;28;20476;-67
2022/07/30 01:47:53;;;;;;;14.33;10.23;;;16.10;99.90;;;;;;5070493;28;20178;-68
2022/07/30 01:50:21;;;;;;;13.87;10.10;;;16.10;99.90;;;;;;5053168;28;20183;-66
2022/07/30 01:52:49;;;;;;;10.77;9.77;;;16.00;99.90;;;;;;5070203;28;20209;-67
2022/07/30 01:55:17;;;;;;;10.87;9.87;;;16.00;99.90;;;;;;5065353;28;20197;-67
2022/07/30 01:57:46;;;;;;;11.07;9.90;;;16.00;99.90;;;;;;5064799;28;20519;-67
2022/07/30 02:00:12;;;;;;;14.60;10.63;;;15.90;99.90;;;;;;5056884;28;20252;-68
2022/07/30 02:02:40;;;;;;;12.13;11.03;;;15.90;99.90;;;;;;5073703;28;20186;-67
2022/07/30 02:05:07;;;;;;;12.47;10.43;;;15.90;99.90;;;;;;5053529;28;20302;-67
2022/07/30 02:07:41;;;;;;;11.83;10.63;;;15.90;99.90;;;;;;5054736;28;20178;-67
2022/07/30 02:10:13;;;;;;;11.57;10.37;;;15.80;99.90;;;;;;5064709;28;20177;-67
2022/07/30 02:12:45;;;;;;;15.67;9.87;;;15.80;99.90;;;;;;5066384;28;20756;-66
2022/07/30 02:15:23;;;;;;;11.50;10.50;;;15.80;99.90;;;;;;5064078;28;20206;-67
2022/07/30 02:18:01;;;;;;;12.00;10.87;;;15.80;99.90;;;;;;5052469;28;20269;-67
2022/07/30 02:20:30;;;;;;;15.07;10.07;;;15.80;99.90;;;;;;5047728;28;20178;-67
2022/07/30 02:23:07;;;;;;;12.17;10.00;;;15.70;99.90;;;;;;5066249;28;20267;-67
2022/07/30 02:25:34;;;;;;;13.33;10.07;;;15.70;99.90;;;;;;5046073;28;20198;-67
2022/07/30 02:28:05;;;;;;;14.27;10.00;;;15.70;99.90;;;;;;5067986;28;20651;-67
2022/07/30 02:30:35;;;;;;;11.37;10.37;;;15.70;99.90;;;;;;5061285;28;20201;-67
2022/07/30 02:33:04;;;;;;;11.77;10.63;;;15.70;99.90;;;;;;5060836;28;20201;-67
2022/07/30 02:35:32;;;;;;;13.87;10.63;;;15.60;99.90;;;;;;5048351;28;20282;-67
2022/07/30 02:37:59;;;;;;;12.67;11.03;;;15.60;99.90;;;;;;5072927;28;20695;-66
2022/07/30 02:40:25;;;;;;;11.97;10.97;;;15.60;99.90;;;;;;5064327;28;20191;-67
2022/07/30 02:42:52;;;;;;;12.30;11.03;;;15.60;99.90;;;;;;5059100;28;20714;-68
2022/07/30 02:45:19;;;;;;;12.17;10.90;;;15.60;99.90;;;;;;5058024;28;20239;-67
2022/07/30 02:47:50;;;;;;;13.30;11.80;;;15.60;99.90;;;;;;5067772;28;20274;-67
2022/07/30 02:50:18;;;;;;;11.93;10.83;;;15.50;99.90;;;;;;5052707;28;20220;-67
2022/07/30 02:52:45;;;;;;;13.80;12.17;;;15.50;99.90;;;;;;5072629;28;20197;-66
2022/07/30 02:55:11;;;;;;;13.37;11.93;;;15.50;99.90;;;;;;5056082;28;20199;-67
2022/07/30 02:57:40;;;;;;;13.47;12.07;;;15.50;99.90;;;;;;5063447;28;20178;-68
2022/07/30 03:00:08;;;;;;;15.20;12.63;;;15.50;99.90;;;;;;5064353;28;20193;-66
2022/07/30 03:02:35;;;;;;;12.43;10.97;;;15.60;99.90;;;;;;5067940;28;20186;-67
2022/07/30 03:05:04;;;;;;;12.00;10.90;;;15.60;99.90;;;;;;5052677;28;20203;-67
2022/07/30 03:07:31;;;;;;;12.60;11.43;;;15.50;99.90;;;;;;5069407;28;20182;-66
2022/07/30 03:09:58;;;;;;;12.77;11.50;;;15.50;99.90;;;;;;5058517;28;20197;-67
2022/07/30 03:12:27;;;;;;;14.23;11.27;;;15.60;99.90;;;;;;5061720;28;20217;-66
2022/07/30 03:14:53;;;;;;;13.03;11.87;;;15.50;99.90;;;;;;5067047;28;20692;-66
2022/07/30 03:17:20;;;;;;;16.70;11.83;;;15.50;99.90;;;;;;5051420;28;20252;-66
2022/07/30 03:19:48;;;;;;;13.37;11.97;;;15.50;99.90;;;;;;5072181;28;20580;-66
2022/07/30 03:22:15;;;;;;;19.23;13.23;;;15.50;99.90;;;;;;5055275;28;20191;-66
2022/07/30 03:24:43;;;;;;;13.73;12.37;;;15.50;99.90;;;;;;5057496;28;21558;-66
2022/07/30 03:27:09;;;;;;;14.00;12.60;;;15.40;99.90;;;;;;5063712;28;20190;-66
2022/07/30 03:29:38;;;;;;;13.20;12.00;;;15.40;99.90;;;;;;5069658;28;20635;-66
2022/07/30 03:32:05;;;;;;;13.27;12.07;;;15.30;99.90;;;;;;5058127;28;20213;-67
2022/07/30 03:34:34;;;;;;;16.83;12.57;;;15.30;99.90;;;;;;5052809;28;20198;-67
2022/07/30 03:37:03;;;;;;;13.37;12.07;;;15.20;99.90;;;;;;5064201;28;20178;-67
2022/07/30 03:39:33;;;;;;;14.00;12.70;;;15.20;99.90;;;;;;5062557;28;20171;-66
2022/07/30 03:41:59;;;;;;;15.13;12.07;;;15.20;99.90;;;;;;5055115;28;20193;-67
2022/07/30 03:44:25;;;;;;;14.17;12.73;;;15.20;99.90;;;;;;5069488;28;20621;-67
2022/07/30 03:46:52;;;;;;;15.00;13.63;;;15.20;99.90;;;;;;5052571;28;20183;-67
2022/07/30 03:49:19;;;;;;;16.17;13.10;;;15.20;99.90;;;;;;5065681;28;20705;-66
2022/07/30 03:51:45;;;;;;;15.63;13.40;;;15.20;99.90;;;;;;5059514;28;20228;-66
2022/07/30 03:54:12;;;;;;;17.33;13.90;;;15.20;99.90;;;;;;5057458;28;20656;-66
2022/07/30 03:56:38;;;;;;;16.13;13.73;;;15.10;99.90;;;;;;5068574;28;20323;-66
2022/07/30 03:59:05;;;;;;;14.43;12.93;;;15.10;99.90;;;;;;5071584;28;20236;-66
2022/07/30 04:01:31;;;;;;;15.37;13.83;;;15.10;99.90;;;;;;5054811;28;20617;-66
2022/07/30 04:04:04;;;;;;;15.07;13.47;;;15.10;99.90;;;;;;5061637;28;20277;-66
2022/07/30 04:06:30;;;;;;;16.47;14.57;;;15.10;99.90;;;;;;5062596;28;20227;-67
2022/07/30 04:08:55;;;;;;;15.80;14.27;;;15.00;99.90;;;;;;5068283;28;20182;-67
2022/07/30 04:11:21;;;;;;;15.63;14.33;;;15.00;99.90;;;;;;5051641;28;20263;-66
2022/07/30 04:13:47;;;;;;;16.20;14.20;;;15.00;99.90;;;;;;5068979;28;20202;-67
2022/07/30 04:16:22;;;;;;;15.63;13.13;;;15.00;99.90;;;;;;5056556;28;20707;-67
2022/07/30 04:18:52;;;;;;;15.37;13.77;;;15.00;99.90;;;;;;5061552;28;20204;-66
2022/07/30 04:21:19;;;;;;;17.37;13.23;;;15.00;99.90;;;;;;5064036;28;20178;-66
2022/07/30 04:23:47;;;;;;;15.90;14.37;;;15.00;99.90;;;;;;5059231;28;20177;-66
2022/07/30 04:26:13;;;;;;;15.40;13.70;;;15.00;99.90;;;;;;5050255;28;20629;-66
2022/07/30 04:28:39;;;;;;;15.47;13.53;;;15.10;99.90;;;;;;5066926;28;20178;-66
2022/07/30 04:31:05;;;;;;;16.77;14.83;;;15.10;99.90;;;;;;5058199;28;20186;-66
2022/07/30 04:33:31;;;;;;;17.30;14.40;;;15.10;99.90;;;;;;5057992;28;20230;-66
2022/07/30 04:35:57;;;;;;;16.30;14.60;;;15.10;99.90;;;;;;5066819;28;20667;-66
2022/07/30 04:38:22;;;;;;;16.67;14.73;;;15.20;99.90;;;;;;5051413;28;20182;-66
2022/07/30 04:40:48;;;;;;;16.77;14.80;;;15.20;99.90;;;;;;5068354;28;20181;-66
2022/07/30 04:43:14;;;;;;;15.83;13.83;;;15.30;99.90;;;;;;5057117;28;20590;-66
2022/07/30 04:45:40;;;;;;;15.87;14.03;;;15.40;99.90;;;;;;5054989;22;20723;-64
2022/07/30 04:48:06;;;;;;;16.67;13.13;;;15.50;99.90;;;;;;5020951;28;20180;-65
2022/07/30 04:50:37;;;;;;;16.33;13.57;;;15.50;99.90;;;;;;5012275;28;20172;-64
2022/07/30 04:53:03;;;;;;;15.70;13.13;;;15.60;99.90;;;;;;5029690;28;20203;-65
2022/07/30 04:55:31;;;;;;;15.47;13.70;;;15.70;99.90;;;;;;5022966;28;20711;-65
2022/07/30 04:57:58;;;;;;;15.37;13.97;;;15.70;99.90;;;;;;5030806;28;20178;-65
2022/07/30 05:00:24;;;;;;;14.83;13.43;;;15.70;99.90;;;;;;5031173;28;20164;-65
2022/07/30 05:02:50;;;;;;;19.03;12.57;;;15.80;99.90;;;;;;5030822;28;20325;-64
2022/07/30 05:05:17;;;;;;;14.73;13.00;;;15.90;99.90;;;;;;5030791;28;20191;-65
2022/07/30 05:07:44;;;;;;;13.80;12.23;;;16.00;99.90;;;;;;5030834;28;20522;-65
2022/07/30 05:10:11;;;;;;;14.77;13.27;;;16.00;99.90;;;;;;5030647;28;20172;-65
2022/07/30 05:12:37;;;;;;;16.80;13.17;;;16.10;99.90;;;;;;5030670;28;20207;-64
2022/07/30 05:15:08;;;;;;;15.07;13.43;;;16.20;99.90;;;;;;5030258;28;20550;-64
2022/07/30 05:17:34;;;;;;;13.50;12.20;;;16.20;99.90;;;;;;5030626;28;20175;-65
2022/07/30 05:20:00;;;;;;;14.63;13.13;;;16.20;99.90;;;;;;5030715;28;20179;-64
2022/07/30 05:22:28;;;;;;;16.23;14.27;;;16.30;99.90;;;;;;5030790;28;20180;-65
2022/07/30 05:24:55;;;;;;;17.73;13.93;;;16.40;99.90;;;;;;5030066;28;20223;-64
2022/07/30 05:27:20;;;;;;;19.27;14.97;;;16.50;99.90;;;;;;5030641;28;20183;-64
2022/07/30 05:29:46;;;;;;;21.00;14.80;;;16.50;99.90;;;;;;5030811;28;20182;-64
2022/07/30 05:32:12;;;;;;;21.13;15.80;;;16.50;99.90;;;;;;5030480;28;20957;-65
2022/07/30 05:34:37;;;;;;;19.77;16.00;;;16.50;99.90;;;;;;5030331;28;20203;-65
2022/07/30 05:37:03;;;;;;;29.77;18.37;;;16.60;99.90;;;;;;5030657;28;20184;-64
2022/07/30 05:39:28;;;;;;;31.43;20.40;;;16.70;99.90;;;;;;5030552;28;20550;-65
2022/07/30 05:41:54;;;;;;;28.73;19.13;;;16.70;99.90;;;;;;5034303;28;20266;-64
2022/07/30 05:44:20;;;;;;;34.67;20.87;;;16.80;99.90;;;;;;5033418;28;20225;-63
2022/07/30 05:46:46;;;;;;;33.50;21.87;;;16.80;99.90;;;;;;5034226;28;20265;-62
2022/07/30 05:49:11;;;;;;;31.10;20.93;;;16.80;99.90;;;;;;5034244;28;20641;-63
2022/07/30 05:51:37;;;;;;;32.97;21.37;;;16.90;99.90;;;;;;5033930;28;20199;-65
2022/07/30 05:54:03;;;;;;;29.67;21.57;;;17.00;99.90;;;;;;5033074;28;20257;-64
2022/07/30 05:56:29;;;;;;;33.53;23.67;;;17.20;99.90;;;;;;5033075;28;20569;-64
2022/07/30 05:58:55;;;;;;;33.57;21.77;;;17.30;99.90;;;;;;5033695;28;20182;-63
2022/07/30 06:01:20;;;;;;;36.57;22.63;;;17.40;99.90;;;;;;5032548;28;20187;-64
2022/07/30 06:03:46;;;;;;;28.03;23.87;;;17.60;99.90;;;;;;5033223;28;20186;-64
2022/07/30 06:06:11;;;;;;;39.83;22.37;;;17.70;99.90;;;;;;5033431;28;20211;-64
2022/07/30 06:08:37;;;;;;;28.70;21.83;;;17.90;99.90;;;;;;5033679;28;20671;-65
2022/07/30 06:11:03;;;;;;;34.93;23.43;;;17.90;99.90;;;;;;5033617;28;20175;-64
2022/07/30 06:13:29;;;;;;;36.53;22.97;;;18.00;99.90;;;;;;5033153;28;20676;-65
2022/07/30 06:15:55;;;;;;;33.53;22.10;;;18.10;99.90;;;;;;5033449;28;20203;-65
2022/07/30 06:18:21;;;;;;;36.83;21.53;;;18.10;99.90;;;;;;5033480;28;20183;-64
2022/07/30 06:20:48;;;;;;;28.17;20.57;;;18.30;99.90;;;;;;5033744;28;20172;-63
2022/07/30 06:23:14;;;;;;;31.03;19.90;;;18.30;99.90;;;;;;5033337;28;20649;-62
2022/07/30 06:25:39;;;;;;;29.40;20.63;;;18.30;99.90;;;;;;5032789;28;20214;-63
2022/07/30 06:28:05;;;;;;;38.27;19.97;;;18.20;99.90;;;;;;5033172;28;20194;-65
2022/07/30 06:30:31;;;;;;;35.03;19.63;;;18.40;99.90;;;;;;5033277;28;20210;-65
2022/07/30 06:32:56;;;;;;;29.43;18.57;;;18.40;99.90;;;;;;5033205;28;20595;-65
2022/07/30 06:35:22;;;;;;;35.50;21.63;;;18.40;99.90;;;;;;5032606;28;20195;-64
2022/07/30 06:37:48;;;;;;;31.47;20.20;;;18.50;99.90;;;;;;5032765;28;20176;-64
2022/07/30 06:40:13;;;;;;;30.57;20.60;;;18.50;99.90;;;;;;5033069;28;20179;-65
2022/07/30 06:42:39;;;;;;;27.50;18.60;;;18.50;99.90;;;;;;5032886;28;20524;-65
2022/07/30 06:45:05;;;;;;;27.73;19.47;;;18.60;99.90;;;;;;5032586;28;20348;-65
2022/07/30 06:47:33;;;;;;;29.80;18.03;;;18.80;99.90;;;;;;5032988;28;20266;-64
2022/07/30 06:50:00;;;;;;;33.40;17.60;;;19.00;99.90;;;;;;5033025;28;20261;-65
2022/07/30 06:52:26;;;;;;;23.93;17.00;;;19.20;99.90;;;;;;5032181;28;20203;-65
2022/07/30 06:54:51;;;;;;;29.07;17.40;;;19.40;99.90;;;;;;5032346;28;20198;-65
2022/07/30 06:57:17;;;;;;;25.77;17.27;;;19.50;99.90;;;;;;5032758;28;20186;-65
2022/07/30 06:59:43;;;;;;;25.93;16.13;;;19.60;99.90;;;;;;5032137;28;20180;-65
2022/07/30 07:02:09;;;;;;;32.23;16.80;;;19.60;99.90;;;;;;5032674;28;20266;-64
2022/07/30 07:04:35;;;;;;;23.03;15.53;;;19.80;99.90;;;;;;5032272;28;20294;-65
2022/07/30 07:07:00;;;;;;;20.73;14.47;;;20.00;99.90;;;;;;5032676;28;20314;-64
2022/07/30 07:09:26;;;;;;;14.17;12.23;;;20.30;99.90;;;;;;5032590;28;20186;-65
2022/07/30 07:11:52;;;;;;;19.00;13.60;;;20.60;99.90;;;;;;5032196;28;20616;-66
2022/07/30 07:14:17;;;;;;;18.27;13.43;;;20.70;99.90;;;;;;5032215;28;20210;-65
2022/07/30 07:16:43;;;;;;;13.15;9.85;;;21.20;99.90;;;;;;5031559;28;20547;-65
2022/07/30 07:19:08;;;;;;;15.50;9.45;;;21.50;99.90;;;;;;5032316;28;20639;-66
2022/07/30 07:21:34;;;;;;;14.93;12.35;;;22.10;99.90;;;;;;5032229;28;20184;-66
2022/07/30 07:24:01;;;;;;;17.13;11.93;;;22.60;99.90;;;;;;5031591;28;20270;-65
2022/07/30 07:26:27;;;;;;;15.30;11.13;;;22.90;99.90;;;;;;5031939;28;20199;-64
2022/07/30 07:28:53;;;;;;;18.65;12.85;;;23.00;99.90;;;;;;5032030;28;20177;-64
2022/07/30 07:31:19;;;;;;;20.20;12.93;;;22.90;99.90;;;;;;5032385;28;20226;-64
2022/07/30 07:33:45;;;;;;;21.00;13.40;;;22.90;99.90;;;;;;5031586;28;20202;-65
2022/07/30 07:36:11;;;;;;;15.02;12.02;;;23.00;99.90;;;;;;5031976;28;20191;-66
2022/07/30 07:38:37;;;;;;;15.10;9.98;;;23.10;99.90;;;;;;5032288;28;20252;-64
2022/07/30 07:41:04;;;;;;;17.10;11.98;;;23.10;99.90;;;;;;5029657;28;20191;-63
2022/07/30 07:43:30;;;;;;;18.90;12.15;;;23.10;99.90;;;;;;5031607;28;20233;-64
2022/07/30 07:45:55;;;;;;;12.38;10.73;;;23.40;99.90;;;;;;5030230;28;20582;-63
2022/07/30 07:48:21;;;;;;;15.52;11.45;;;23.80;99.90;;;;;;5031912;28;20465;-64
2022/07/30 07:50:47;;;;;;;22.98;12.98;;;24.20;99.90;;;;;;5031744;28;20183;-64
2022/07/30 07:53:12;;;;;;;19.75;12.52;;;24.30;99.90;;;;;;5031528;28;20257;-65
2022/07/30 07:55:39;;;;;;;16.38;11.70;;;24.20;99.90;;;;;;5031232;28;20574;-64
2022/07/30 07:58:04;;;;;;;16.05;10.50;;;24.10;99.90;;;;;;5031359;28;20186;-63
2022/07/30 08:00:30;;;;;;;16.38;10.82;;;24.10;99.90;;;;;;5031440;28;20176;-63
2022/07/30 08:02:56;;;;;;;12.95;10.70;;;24.00;99.90;;;;;;5030947;28;20230;-65
2022/07/30 08:05:22;;;;;;;15.85;10.05;;;24.20;99.90;;;;;;5030761;28;20772;-65
2022/07/30 08:07:48;;;;;;;11.93;9.88;;;24.50;99.90;;;;;;5031004;28;20186;-63
2022/07/30 08:10:14;;;;;;;17.25;10.55;;;24.70;99.90;;;;;;5031312;28;20270;-64
2022/07/30 08:12:41;;;;;;;11.43;9.05;;;25.20;99.90;;;;;;5031191;28;20362;-63
2022/07/30 08:15:08;;;;;;;11.20;9.55;;;25.50;99.90;;;;;;5030953;28;20219;-63
2022/07/30 08:17:39;;;;;;;10.98;9.02;;;25.90;99.90;;;;;;5031254;28;20187;-63
2022/07/30 08:20:06;;;;;;;12.05;9.68;;;25.90;99.90;;;;;;5031020;28;20193;-63
2022/07/30 08:22:31;;;;;;;12.73;8.75;;;25.90;99.90;;;;;;5030999;28;20175;-63
2022/07/30 08:24:57;;;;;;;11.05;8.65;;;25.90;99.90;;;;;;5030654;28;20551;-63
2022/07/30 08:27:22;;;;;;;13.05;8.75;;;26.20;99.90;;;;;;5031086;28;20254;-63
2022/07/30 08:29:48;;;;;;;14.43;8.65;;;26.70;99.90;;;;;;5031249;28;20274;-63
2022/07/30 08:32:13;;;;;;;11.65;9.45;;;26.80;99.90;;;;;;5030917;28;20664;-63
2022/07/30 08:34:39;;;;;;;11.98;9.25;;;27.00;99.90;;;;;;5030937;28;20230;-63
2022/07/30 08:37:05;;;;;;;10.05;8.48;;;27.00;99.90;;;;;;5030583;28;20183;-63
2022/07/30 08:39:30;;;;;;;14.48;10.35;;;27.30;99.90;;;;;;5029894;28;20199;-63
2022/07/30 08:41:57;;;;;;;11.02;9.10;;;27.40;99.90;;;;;;5030783;28;20226;-65
2022/07/30 08:44:23;;;;;;;14.32;9.25;;;27.10;99.90;;;;;;5030053;28;20522;-65
2022/07/30 08:46:55;;;;;;;10.48;9.05;;;26.70;99.90;;;;;;5030718;28;20179;-64
2022/07/30 08:49:22;;;;;;;11.45;9.13;;;26.60;99.90;;;;;;5030822;28;20183;-65
2022/07/30 08:51:49;;;;;;;19.13;9.93;;;26.00;99.90;;;;;;5030917;28;20703;-65
2022/07/30 08:54:16;;;;;;;12.68;9.20;;;25.50;99.90;;;;;;5030373;28;20575;-65
2022/07/30 08:56:42;;;;;;;13.45;8.48;;;25.80;99.90;;;;;;5030808;28;20225;-65
2022/07/30 08:59:09;;;;;;;16.75;8.70;;;25.90;99.90;;;;;;5030954;28;20171;-65
2022/07/30 09:01:34;;;;;;;13.02;9.40;;;25.90;99.90;;;;;;5030535;28;20198;-65
2022/07/30 09:04:00;;;;;;;9.93;8.68;;;25.90;99.90;;;;;;5030637;28;20183;-64
2022/07/30 09:06:26;;;;;;;11.45;9.65;;;25.70;99.90;;;;;;5030363;28;20195;-63
2022/07/30 09:08:52;;;;;;;11.75;9.15;;;25.70;99.90;;;;;;5031101;28;20180;-64
2022/07/30 09:11:18;;;;;;;10.63;8.27;;;26.10;99.90;;;;;;5030449;28;20203;-64
2022/07/30 09:13:44;;;;;;;11.00;8.00;;;26.50;99.90;;;;;;5030354;28;20164;-66
2022/07/30 09:16:25;;;;;;;10.77;8.52;;;26.40;99.90;;;;;;5033074;28;20227;-65
2022/07/30 09:18:52;;;;;;;8.77;7.88;;;26.40;99.90;;;;;;5034554;28;20245;-64
2022/07/30 09:21:27;;;;;;;9.25;7.25;;;26.60;99.90;;;;;;5034346;28;20190;-65
2022/07/30 09:24:10;;;;;;;10.73;7.72;;;27.20;99.90;;;;;;5027000;28;20186;-63
2022/07/30 09:26:54;;;;;;;11.32;7.57;;;27.50;99.90;;;;;;5034441;28;20587;-65
2022/07/30 09:29:22;;;;;;;9.25;7.13;;;27.90;99.90;;;;;;5034297;28;20188;-65
2022/07/30 09:31:59;;;;;;;10.50;8.02;;;28.10;99.90;;;;;;5034239;28;20582;-65
2022/07/30 09:34:31;;;;;;;8.07;7.28;;;28.40;99.90;;;;;;5033141;28;20186;-65
2022/07/30 09:37:00;;;;;;;9.35;8.35;;;28.40;99.90;;;;;;5034228;28;20178;-65
2022/07/30 09:39:39;;;;;;;14.13;8.05;;;28.10;99.90;;;;;;5034294;28;20168;-65
2022/07/30 09:42:16;;;;;;;7.40;6.70;;;28.10;99.90;;;;;;5027061;28;20178;-66
2022/07/30 09:44:41;;;;;;;11.02;6.47;;;28.70;99.90;;;;;;5033622;28;20276;-65
2022/07/30 09:47:07;;;;;;;11.07;7.60;;;28.80;99.90;;;;;;5034281;28;20219;-65
2022/07/30 09:49:33;;;;;;;10.27;7.47;;;29.10;99.90;;;;;;5033745;28;20187;-65
2022/07/30 09:51:59;;;;;;;7.40;6.00;;;29.30;99.90;;;;;;5033411;28;20207;-66
2022/07/30 09:54:44;;;;;;;11.00;8.15;;;29.60;99.90;;;;;;5033615;28;20168;-65
2022/07/30 09:57:09;;;;;;;9.35;8.15;;;29.70;99.90;;;;;;5033763;28;20175;-65
2022/07/30 09:59:35;;;;;;;7.30;6.60;;;29.70;99.90;;;;;;5033678;28;20178;-64
2022/07/30 10:02:00;;;;;;;7.60;5.97;;;29.80;99.90;;;;;;5033936;28;20179;-65
2022/07/30 10:04:28;;;;;;;7.03;6.43;;;29.90;99.90;;;;;;5031185;28;20183;-65
2022/07/30 10:06:55;;;;;;;8.98;6.35;;;29.80;99.90;;;;;;5033998;28;20179;-65
2022/07/30 10:09:28;;;;;;;8.88;6.38;;;29.50;99.90;;;;;;5033624;28;20237;-66
2022/07/30 10:11:55;;;;;;;8.40;6.55;;;29.50;99.90;;;;;;5033686;28;20245;-65
2022/07/30 10:14:23;;;;;;;6.05;5.00;;;29.80;99.90;;;;;;5032797;28;20214;-66
2022/07/30 10:16:50;;;;;;;6.70;5.82;;;30.10;99.90;;;;;;5033616;28;20221;-66
2022/07/30 10:19:17;;;;;;;8.68;6.15;;;30.90;99.90;;;;;;5033237;28;20271;-66
2022/07/30 10:21:44;;;;;;;5.82;5.22;;;31.20;99.90;;;;;;5033213;28;20176;-66
2022/07/30 10:24:09;;;;;;;6.82;5.47;;;31.20;99.90;;;;;;5032783;28;20187;-66
2022/07/30 10:26:36;;;;;;;10.75;6.10;;;31.20;99.90;;;;;;5030652;28;20694;-66
2022/07/30 10:29:02;;;;;;;8.07;6.35;;;31.00;99.90;;;;;;5033540;28;20653;-65
2022/07/30 10:31:28;;;;;;;10.43;5.88;;;30.60;99.90;;;;;;5033127;28;20290;-65
2022/07/30 10:33:55;;;;;;;6.63;5.60;;;30.30;99.90;;;;;;5032837;28;20176;-65
2022/07/30 10:36:22;;;;;;;9.75;6.38;;;30.10;99.90;;;;;;5033315;28;20672;-65
2022/07/30 10:38:49;;;;;;;12.63;6.05;;;30.00;99.90;;;;;;5033045;28;20180;-66
2022/07/30 10:41:21;;;;;;;7.90;6.38;;;29.50;99.90;;;;;;5033136;28;20171;-64
2022/07/30 10:43:52;;;;;;;10.02;6.82;;;29.10;99.90;;;;;;5032941;28;20625;-64
2022/07/30 10:46:27;;;;;;;9.48;7.20;;;28.80;99.90;;;;;;5079042;22;20701;-63
2022/07/30 10:48:54;;;;;;;8.38;7.57;;;28.60;99.90;;;;;;5070880;28;20177;-63
2022/07/30 10:51:21;;;;;;;8.10;6.22;;;28.60;99.90;;;;;;5066445;28;20182;-62
2022/07/30 10:53:47;;;;;;;10.88;5.82;;;29.20;99.90;;;;;;5056979;28;20397;-63
2022/07/30 10:56:19;;;;;;;6.53;5.40;;;29.50;99.90;;;;;;5041146;28;20202;-63
2022/07/30 10:59:05;;;;;;;10.00;5.15;;;29.60;99.90;;;;;;5041899;28;20538;-63
2022/07/30 11:01:46;;;;;;;6.53;4.65;;;30.00;99.90;;;;;;5052836;28;20174;-63
2022/07/30 11:04:18;;;;;;;6.47;5.50;;;30.10;99.90;;;;;;5052825;28;20179;-63
2022/07/30 11:06:44;;;;;;;6.53;5.45;;;30.20;99.90;;;;;;5052923;28;20257;-63
2022/07/30 11:09:38;;;;;;;6.47;4.97;;;30.10;99.90;;;;;;5052854;28;20589;-63
2022/07/30 11:12:08;;;;;;;9.43;5.60;;;30.10;99.90;;;;;;5051965;28;20203;-63
2022/07/30 11:14:46;;;;;;;8.18;4.90;;;30.00;99.90;;;;;;5052283;28;20630;-63
2022/07/30 11:17:16;;;;;;;5.03;4.53;;;29.80;99.90;;;;;;5052807;28;20171;-63
2022/07/30 11:20:01;;;;;;;5.10;4.57;;;29.80;99.90;;;;;;5052776;28;20213;-63
2022/07/30 11:22:37;;;;;;;6.47;4.50;;;30.10;99.90;;;;;;5052575;28;20171;-62
2022/07/30 11:25:07;;;;;;;5.13;4.38;;;30.50;99.90;;;;;;5050191;28;20202;-62
2022/07/30 11:27:38;;;;;;;5.47;4.00;;;31.00;99.90;;;;;;5052515;28;20175;-63
2022/07/30 11:30:26;;;;;;;7.13;4.63;;;31.20;99.90;;;;;;5052406;28;20167;-63
2022/07/30 11:32:54;;;;;;;8.80;4.50;;;31.20;99.90;;;;;;5039913;28;20552;-63
2022/07/30 11:35:21;;;;;;;5.45;3.42;;;31.30;99.90;;;;;;5051772;28;20198;-63
2022/07/30 11:38:07;;;;;;;3.75;3.40;;;31.30;99.90;;;;;;5052222;28;20646;-63
2022/07/30 11:40:41;;;;;;;6.43;3.75;;;31.30;99.90;;;;;;5052117;28;20647;-63
2022/07/30 11:43:28;;;;;;;8.25;3.78;;;31.20;99.90;;;;;;5052313;28;20178;-63
2022/07/30 11:46:07;;;;;;;3.97;3.67;;;31.10;99.90;;;;;;5052108;28;20218;-63
2022/07/30 11:48:33;;;;;;;4.40;4.10;;;31.10;99.90;;;;;;5052077;28;20174;-63
2022/07/30 11:50:59;;;;;;;5.60;3.97;;;31.30;99.90;;;;;;5052282;28;20177;-63
2022/07/30 11:53:24;;;;;;;5.18;3.97;;;31.20;99.90;;;;;;5051602;28;20566;-63
2022/07/30 11:55:51;;;;;;;4.78;4.15;;;31.00;99.90;;;;;;5049594;28;20203;-63
2022/07/30 11:58:24;;;;;;;5.35;4.82;;;30.80;99.90;;;;;;5051814;28;20163;-63
2022/07/30 12:00:50;;;;;;;4.15;3.72;;;30.70;99.90;;;;;;5052023;28;20261;-63
2022/07/30 12:03:18;;;;;;;4.60;3.78;;;30.70;99.90;;;;;;5051917;28;20274;-63
2022/07/30 12:05:44;;;;;;;3.90;3.60;;;30.60;99.90;;;;;;5051478;28;20197;-63
2022/07/30 12:08:11;;;;;;;5.47;4.13;;;30.50;99.90;;;;;;5051936;28;20171;-63
2022/07/30 12:10:40;;;;;;;4.03;3.63;;;30.40;99.60;;;;;;5051572;28;20265;-63
2022/07/30 12:13:14;;;;;;;4.88;3.78;;;30.70;99.90;;;;;;5051089;28;20202;-63
2022/07/30 12:15:45;;;;;;;4.00;3.50;;;30.60;98.50;;;;;;5051430;28;20218;-63
2022/07/30 12:18:12;;;;;;;6.55;4.22;;;30.70;99.90;;;;;;5051457;28;20623;-63
2022/07/30 12:20:39;;;;;;;4.40;3.97;;;30.90;99.70;;;;;;5051813;28;20206;-63
2022/07/30 12:23:12;;;;;;;3.90;2.90;;;31.30;99.40;;;;;;5051892;28;20648;-63
2022/07/30 12:25:42;;;;;;;5.13;3.60;;;31.50;97.30;;;;;;5051200;28;20191;-63
2022/07/30 12:28:12;;;;;;;3.78;3.33;;;31.20;97.70;;;;;;5049286;28;20182;-63
2022/07/30 12:30:39;;;;;;;4.45;3.30;;;31.00;99.90;;;;;;5051338;28;20562;-63
2022/07/30 12:33:06;;;;;;;3.40;3.20;;;30.80;99.30;;;;;;5051305;28;20210;-63
2022/07/30 12:35:47;;;;;;;3.72;3.42;;;30.60;98.90;;;;;;5050860;28;20217;-63
2022/07/30 12:38:14;;;;;;;3.88;3.58;;;30.50;99.90;;;;;;5051336;28;20246;-63
2022/07/30 12:41:03;;;;;;;4.93;3.42;;;30.40;99.70;;;;;;5051478;28;20284;-63
2022/07/30 12:43:43;;;;;;;9.98;4.07;;;30.40;99.90;;;;;;5046171;28;20250;-63